Terminal Aerodrome Forecast
Issued by NWS Cleveland, OH

Home | Current Version | Previous Version | Graphics & Text | Print | Product List | Glossary Off
Versions: 1 2 3 4 5 6 7 8 9 10 11 12 13 14 15 16 17 18 19

000
FTUS41 KCLE 222124 AAB
TAFYNG
TAF AMD
KYNG 222124Z 2221/2318 20008KT P6SM OVC015
     FM230600 20006KT 5SM BR OVC008
     FM231400 22010KT 3SM BR OVC004=

USA.gov is the U.S. government's official web portal to all federal, state and local government web resources and services.